Airfield :
LOGIN :

Register | Disclaimer

   EN    FR    IT 

 










Legend :    VFR   Marginal VFR   IFR   Intensive IFR   Very Intensive IFR
Visi :
Ceiling :
>= 8 km
>= 3000ft
5 to 8 km
1000 to 3000 ft
1500m to 5 km
500 to 1000 ft
800 to 1500m
200 to 500 ft
< 800m
< 200 ft
Symbols :   Thunderstorms  Fog  Heavy snow  Heavy precipitations  Wind > 20 kt
SIGMETs :     Misc.  Thunderstorms  Icing  Turbulence  Mountain Waves  Volcanic Ashes






- Airport Elevation : 26 ft


ETNT - Wittmundhaven AB

CURRENT METAR :
  • 050720Z 22009KT 9999 SCT020TCU 12/07 Q0993 BLU+BLU+

EXPIRED METARs :
  • 050620Z 23010KT 9999 FEW020TCU SCT055 10/07 Q0993 BLU+BLU TEMPO GRN
  • 050520Z 22008KT 9999 FEW021 SCT045 09/07 Q0993 BLU+BLU TEMPO GRN

TAF TAF ETNT
Valid from the 05 at 08:00 until the 05 at 17:00 UTC


050713Z 0508/0517 22010KT 9999 NSW SCT025 SCT140
PROB30 0508/0510 20015KT 4000 SHRA BKN014TCU
BECMG 0509/0511 18012G22KT 9999 NSW SCT030 BKN140
TEMPO 0510/0517 18015G25KT 4000 SHRA BKN012CB
PROB30 0510/0517 VRB15G35KT 3000 TSRA BKN010CB BY ETGL



MET'MAP, your aeronautical weather chart ! - Copyright ORBIFLY December 2007 - Disclaimer

ORBIFLY MET'MAP TEAM :

Programming & Development : Alexandra Zaïnal
Concept & original design : Baudouin d'Aumeries
Assistance for programming : Marc-Olivier Méhu
Technical & hardware support : Manuel Goepfert

Contact : metmap@orbifly.com




SOURCES & CREDITS :

   NOAA